• Join FlightAware (Why Join?)
  • Login
  • US Flag 
12:01AM EDT


 

Airport Tracker/Info


-or-


 

Live Flight TrackerFlight Track Log ✈ CSN3452 ✈ 09-Apr-2013 ✈ ZPLJ / LJG - ZPPP / KMG

Flight Track Log - Related Links

Times and Time Zones

All times are in EDT time to prevent confusion due to time zone crossing. See the CSN3452 flight status page for this flight to view local times or setup timezone preferences in your user account.

Time Position Orientation Groundspeed Altitude Reporting Facility
EDT Latitude Longitude Course Direction KTS MPH feet Rate Location/Type
07:59AM 26.5823 100.4153 123° Southeast  Level Estimated
08:00AM 26.4852 100.5845 123° Southeast  Level Estimated
08:01AM 26.3879 100.7533 123° Southeast  Level Estimated
08:02AM 26.2904 100.9219 123° Southeast  Level Estimated
08:03AM 26.1927 101.0902 123° Southeast  Level Estimated
08:04AM 26.0948 101.2583 123° Southeast  Level Estimated
08:05AM 25.9967 101.4260 123° Southeast  Level Estimated
08:06AM 25.8985 101.5935 123° Southeast  Level Estimated
08:07AM 25.8000 101.7607 123° Southeast  Level Estimated
08:08AM 25.7014 101.9276 123° Southeast  Level Estimated
08:09AM 25.6025 102.0942 123° Southeast  Level Estimated
08:10AM 25.5035 102.2606 123° Southeast  Level Estimated
08:11AM 25.4043 102.4267 123° Southeast  Level Estimated
08:12AM 25.3049 102.5925 124° Southeast  Level Estimated
08:13AM 25.2053 102.7580 124° Southeast  Level Estimated
08:14AM 25.1055 102.9233 124° Southeast  Level Estimated
08:15AM 25.1019 102.9292 124° Southeast  Level Estimated
08:16AM 25.1019 102.9292 326° Northwest  Level Estimated
08:17AM 25.1019 102.9292 326° Northwest  Level Estimated
08:18AM 25.1019 102.9292 326° Northwest  Level Estimated
08:19AM 25.1019 102.9292 326° Northwest  Level Estimated
08:20AM 25.1019 102.9292 326° Northwest  Level Estimated
08:21AM 25.1019 102.9292 326° Northwest  Level Estimated
08:22AM 25.1019 102.9292 326° Northwest  Level Estimated
08:23AM 25.1019 102.9292 326° Northwest  Level Estimated
08:24AM 25.1019 102.9292 326° Northwest  Level Estimated
08:25AM 25.1019 102.9292 326° Northwest  Level Estimated
08:26AM 25.1019 102.9292 326° Northwest  Level Estimated
08:27AM 25.1019 102.9292 326° Northwest  Level Estimated
08:28AM 25.1019 102.9292 326° Northwest  Level Estimated
08:29AM 25.1019 102.9292 326° Northwest  Level Estimated
08:30AM 25.1019 102.9292 326° Northwest  Level Estimated
08:31AM 25.1019 102.9292 326° Northwest  Level Estimated